sensor_id;sensor_type;location;lat;lon;timestamp;pressure;altitude;pressure_sealevel;temperature;humidity
15694;BME280;7947;48.834;9.132;2023-05-19T00:02:03;98672.53;;;13.30;61.03
15694;BME280;7947;48.834;9.132;2023-05-19T00:05:10;98677.72;;;13.21;60.30
15694;BME280;7947;48.834;9.132;2023-05-19T00:08:16;98680.16;;;13.18;59.69
15694;BME280;7947;48.834;9.132;2023-05-19T00:11:20;98681.22;;;13.17;59.20
15694;BME280;7947;48.834;9.132;2023-05-19T00:14:26;98671.28;;;13.17;58.86
15694;BME280;7947;48.834;9.132;2023-05-19T00:17:29;98675.31;;;13.15;59.18
15694;BME280;7947;48.834;9.132;2023-05-19T00:20:34;98674.25;;;13.11;59.05
15694;BME280;7947;48.834;9.132;2023-05-19T00:23:38;98672.38;;;13.11;59.49
15694;BME280;7947;48.834;9.132;2023-05-19T00:26:41;98673.47;;;13.10;60.59
15694;BME280;7947;48.834;9.132;2023-05-19T00:29:45;98675.88;;;13.12;61.32
15694;BME280;7947;48.834;9.132;2023-05-19T00:32:48;98671.59;;;13.06;62.38
15694;BME280;7947;48.834;9.132;2023-05-19T00:35:51;98668.38;;;12.99;64.09
15694;BME280;7947;48.834;9.132;2023-05-19T00:38:54;98667.03;;;12.91;64.69
15694;BME280;7947;48.834;9.132;2023-05-19T00:41:56;98668.44;;;12.84;63.65
15694;BME280;7947;48.834;9.132;2023-05-19T00:45:01;98670.88;;;12.80;65.30
15694;BME280;7947;48.834;9.132;2023-05-19T00:48:03;98661.44;;;12.78;65.58
15694;BME280;7947;48.834;9.132;2023-05-19T00:51:06;98671.72;;;12.70;64.75
15694;BME280;7947;48.834;9.132;2023-05-19T00:54:09;98671.75;;;12.65;63.18
15694;BME280;7947;48.834;9.132;2023-05-19T00:57:13;98662.31;;;12.73;63.11
15694;BME280;7947;48.834;9.132;2023-05-19T01:00:17;98658.78;;;12.73;63.36
15694;BME280;7947;48.834;9.132;2023-05-19T01:03:20;98659.59;;;12.68;63.30
15694;BME280;7947;48.834;9.132;2023-05-19T01:06:24;98658.28;;;12.60;63.14
15694;BME280;7947;48.834;9.132;2023-05-19T01:09:28;98651.31;;;12.59;62.83
15694;BME280;7947;48.834;9.132;2023-05-19T01:12:32;98650.25;;;12.55;64.29
15694;BME280;7947;48.834;9.132;2023-05-19T01:15:42;98658.31;;;12.55;65.98
15694;BME280;7947;48.834;9.132;2023-05-19T01:18:55;98657.28;;;12.46;66.02
15694;BME280;7947;48.834;9.132;2023-05-19T01:22:24;98661.59;;;12.37;66.87
15694;BME280;7947;48.834;9.132;2023-05-19T01:26:03;98657.31;;;12.31;66.71
15694;BME280;7947;48.834;9.132;2023-05-19T01:29:28;98667.25;;;12.36;65.45
15694;BME280;7947;48.834;9.132;2023-05-19T01:32:40;98671.28;;;12.33;65.79
15694;BME280;7947;48.834;9.132;2023-05-19T01:35:44;98669.13;;;12.35;64.54
15694;BME280;7947;48.834;9.132;2023-05-19T01:38:49;98668.84;;;12.42;64.69
15694;BME280;7947;48.834;9.132;2023-05-19T01:41:53;98667.75;;;12.43;65.09
15694;BME280;7947;48.834;9.132;2023-05-19T01:44:56;98667.75;;;12.43;64.71
15694;BME280;7947;48.834;9.132;2023-05-19T01:48:01;98666.41;;;12.45;66.25
15694;BME280;7947;48.834;9.132;2023-05-19T01:51:05;98670.19;;;12.44;66.43
15694;BME280;7947;48.834;9.132;2023-05-19T01:54:08;98669.09;;;12.45;67.17
15694;BME280;7947;48.834;9.132;2023-05-19T01:57:16;98663.47;;;12.42;67.64
15694;BME280;7947;48.834;9.132;2023-05-19T02:00:33;98662.94;;;12.40;69.13
15694;BME280;7947;48.834;9.132;2023-05-19T02:03:51;98662.16;;;12.34;69.47
15694;BME280;7947;48.834;9.132;2023-05-19T02:07:02;98665.13;;;12.28;68.83
15694;BME280;7947;48.834;9.132;2023-05-19T02:10:10;98657.84;;;12.28;66.58
15694;BME280;7947;48.834;9.132;2023-05-19T02:13:18;98655.44;;;12.32;65.52
15694;BME280;7947;48.834;9.132;2023-05-19T02:16:26;98656.53;;;12.31;65.01
15694;BME280;7947;48.834;9.132;2023-05-19T02:19:32;98660.56;;;12.28;64.93
15694;BME280;7947;48.834;9.132;2023-05-19T02:22:35;98664.31;;;12.32;65.01
15694;BME280;7947;48.834;9.132;2023-05-19T02:25:38;98668.63;;;12.28;65.46
15694;BME280;7947;48.834;9.132;2023-05-19T02:28:41;98661.91;;;12.31;65.90
15694;BME280;7947;48.834;9.132;2023-05-19T02:31:44;98668.88;;;12.22;66.20
15694;BME280;7947;48.834;9.132;2023-05-19T02:34:48;98665.91;;;12.23;66.20
15694;BME280;7947;48.834;9.132;2023-05-19T02:37:51;98671.84;;;12.25;67.33
15694;BME280;7947;48.834;9.132;2023-05-19T02:40:54;98674.28;;;12.27;66.69
15694;BME280;7947;48.834;9.132;2023-05-19T02:43:57;98664.84;;;12.24;66.48
15694;BME280;7947;48.834;9.132;2023-05-19T02:47:00;98662.16;;;12.24;69.71
15694;BME280;7947;48.834;9.132;2023-05-19T02:50:06;98659.47;;;12.24;70.08
15694;BME280;7947;48.834;9.132;2023-05-19T02:53:09;98668.91;;;12.27;68.63
15694;BME280;7947;48.834;9.132;2023-05-19T02:56:12;98657.06;;;12.18;69.98
15694;BME280;7947;48.834;9.132;2023-05-19T02:59:15;98657.09;;;12.13;70.66
15694;BME280;7947;48.834;9.132;2023-05-19T03:02:17;98650.91;;;12.07;71.41
15694;BME280;7947;48.834;9.132;2023-05-19T03:05:22;98653.03;;;12.10;72.07
15694;BME280;7947;48.834;9.132;2023-05-19T03:08:25;98640.97;;;12.03;72.60
15694;BME280;7947;48.834;9.132;2023-05-19T03:11:27;98645.81;;;11.96;72.76
15694;BME280;7947;48.834;9.132;2023-05-19T03:14:31;98652.28;;;11.90;73.80
15694;BME280;7947;48.834;9.132;2023-05-19T03:17:34;98647.44;;;11.82;72.66
15694;BME280;7947;48.834;9.132;2023-05-19T03:20:39;98652.81;;;11.82;72.93
15694;BME280;7947;48.834;9.132;2023-05-19T03:23:43;98646.63;;;11.76;73.54
15694;BME280;7947;48.834;9.132;2023-05-19T03:26:45;98661.94;;;11.75;73.50
15694;BME280;7947;48.834;9.132;2023-05-19T03:29:48;98652.53;;;11.73;72.20
15694;BME280;7947;48.834;9.132;2023-05-19T03:32:53;98650.66;;;11.73;71.52
15694;BME280;7947;48.834;9.132;2023-05-19T03:35:57;98650.91;;;11.77;70.79
15694;BME280;7947;48.834;9.132;2023-05-19T03:39:00;98654.44;;;11.72;72.00
15694;BME280;7947;48.834;9.132;2023-05-19T03:42:03;98655.22;;;11.68;73.93
15694;BME280;7947;48.834;9.132;2023-05-19T03:45:07;98654.41;;;11.62;74.05
15694;BME280;7947;48.834;9.132;2023-05-19T03:48:09;98653.88;;;11.55;73.28
15694;BME280;7947;48.834;9.132;2023-05-19T03:51:14;98652.25;;;11.49;73.41
15694;BME280;7947;48.834;9.132;2023-05-19T03:54:17;98656.56;;;11.55;74.14
15694;BME280;7947;48.834;9.132;2023-05-19T03:57:21;98661.09;;;11.45;74.00
15694;BME280;7947;48.834;9.132;2023-05-19T04:00:24;98663.25;;;11.43;75.23
15694;BME280;7947;48.834;9.132;2023-05-19T04:03:27;98670.22;;;11.34;74.46
15694;BME280;7947;48.834;9.132;2023-05-19T04:06:31;98675.03;;;11.27;74.84
15694;BME280;7947;48.834;9.132;2023-05-19T04:09:34;98667.25;;;11.25;74.73
15694;BME280;7947;48.834;9.132;2023-05-19T04:12:38;98670.97;;;11.19;75.26
15694;BME280;7947;48.834;9.132;2023-05-19T04:15:41;98676.88;;;11.16;75.87
15694;BME280;7947;48.834;9.132;2023-05-19T04:18:44;98683.06;;;11.17;75.87
15694;BME280;7947;48.834;9.132;2023-05-19T04:21:48;98685.22;;;11.15;75.83
15694;BME280;7947;48.834;9.132;2023-05-19T04:24:51;98683.59;;;11.09;75.91
15694;BME280;7947;48.834;9.132;2023-05-19T04:27:54;98681.44;;;11.11;76.49
15694;BME280;7947;48.834;9.132;2023-05-19T04:30:58;98675.81;;;11.12;76.76
15694;BME280;7947;48.834;9.132;2023-05-19T04:34:01;98677.41;;;11.13;76.25
15694;BME280;7947;48.834;9.132;2023-05-19T04:37:06;98682.25;;;11.16;75.51
15694;BME280;7947;48.834;9.132;2023-05-19T04:40:11;98676.09;;;11.26;74.34
15694;BME280;7947;48.834;9.132;2023-05-19T04:43:14;98683.88;;;11.27;73.99
15694;BME280;7947;48.834;9.132;2023-05-19T04:46:18;98671.00;;;11.29;74.59
15694;BME280;7947;48.834;9.132;2023-05-19T04:49:25;98675.59;;;11.39;73.88
15694;BME280;7947;48.834;9.132;2023-05-19T04:52:29;98677.75;;;11.47;73.39
15694;BME280;7947;48.834;9.132;2023-05-19T04:55:31;98672.13;;;11.53;72.76
15694;BME280;7947;48.834;9.132;2023-05-19T04:58:35;98680.97;;;11.54;71.73
15694;BME280;7947;48.834;9.132;2023-05-19T05:01:41;98674.00;;;11.63;72.69
15694;BME280;7947;48.834;9.132;2023-05-19T05:04:44;98675.94;;;11.72;72.82
15694;BME280;7947;48.834;9.132;2023-05-19T05:07:48;98685.34;;;11.80;71.04
15694;BME280;7947;48.834;9.132;2023-05-19T05:10:51;98690.19;;;11.88;70.99
15694;BME280;7947;48.834;9.132;2023-05-19T05:13:54;98693.94;;;11.97;70.35
15694;BME280;7947;48.834;9.132;2023-05-19T05:16:59;98686.94;;;12.01;70.71
15694;BME280;7947;48.834;9.132;2023-05-19T05:20:03;98674.81;;;12.09;70.45
15694;BME280;7947;48.834;9.132;2023-05-19T05:23:09;98675.63;;;12.14;70.36
15694;BME280;7947;48.834;9.132;2023-05-19T05:26:17;98675.63;;;12.14;70.04
15694;BME280;7947;48.834;9.132;2023-05-19T05:29:20;98673.47;;;12.16;70.13
15694;BME280;7947;48.834;9.132;2023-05-19T05:32:23;98677.22;;;12.20;70.65
15694;BME280;7947;48.834;9.132;2023-05-19T05:35:26;98676.97;;;12.27;69.39
15694;BME280;7947;48.834;9.132;2023-05-19T05:38:31;98678.84;;;12.26;69.50
15694;BME280;7947;48.834;9.132;2023-05-19T05:41:34;98676.91;;;12.37;69.65
15694;BME280;7947;48.834;9.132;2023-05-19T05:44:37;98675.56;;;12.49;70.17
15694;BME280;7947;48.834;9.132;2023-05-19T05:47:40;98676.59;;;12.58;69.08
15694;BME280;7947;48.834;9.132;2023-05-19T05:50:44;98680.06;;;12.64;67.77
15694;BME280;7947;48.834;9.132;2023-05-19T05:53:51;98674.44;;;12.65;67.19
15694;BME280;7947;48.834;9.132;2023-05-19T05:56:55;98680.81;;;12.80;67.63
15694;BME280;7947;48.834;9.132;2023-05-19T05:59:58;98678.34;;;12.93;67.50
15694;BME280;7947;48.834;9.132;2023-05-19T06:03:00;98676.97;;;13.06;66.39
15694;BME280;7947;48.834;9.132;2023-05-19T06:06:04;98681.25;;;13.12;64.30
15694;BME280;7947;48.834;9.132;2023-05-19T06:09:08;98676.94;;;13.11;64.12
15694;BME280;7947;48.834;9.132;2023-05-19T06:12:11;98671.03;;;13.14;63.76
15694;BME280;7947;48.834;9.132;2023-05-19T06:15:14;98681.22;;;13.22;64.07
15694;BME280;7947;48.834;9.132;2023-05-19T06:18:17;98671.16;;;13.32;63.84
15694;BME280;7947;48.834;9.132;2023-05-19T06:21:20;98677.84;;;13.45;63.60
15694;BME280;7947;48.834;9.132;2023-05-19T06:24:24;98674.28;;;13.54;63.21
15694;BME280;7947;48.834;9.132;2023-05-19T06:27:27;98676.78;;;13.80;63.38
15694;BME280;7947;48.834;9.132;2023-05-19T06:30:30;98676.34;;;13.96;63.77
15694;BME280;7947;48.834;9.132;2023-05-19T06:33:33;98670.50;;;14.18;63.52
15694;BME280;7947;48.834;9.132;2023-05-19T06:36:36;98666.47;;;14.44;63.12
15694;BME280;7947;48.834;9.132;2023-05-19T06:39:40;98666.25;;;14.64;61.95
15694;BME280;7947;48.834;9.132;2023-05-19T06:42:43;98669.25;;;14.86;61.51
15694;BME280;7947;48.834;9.132;2023-05-19T06:45:45;98663.19;;;14.94;60.74
15694;BME280;7947;48.834;9.132;2023-05-19T06:48:48;98664.22;;;14.98;60.35
15694;BME280;7947;48.834;9.132;2023-05-19T06:51:51;98665.13;;;15.12;61.18
15694;BME280;7947;48.834;9.132;2023-05-19T06:54:55;98658.47;;;15.23;61.01
15694;BME280;7947;48.834;9.132;2023-05-19T06:57:59;98664.97;;;15.22;59.09
15694;BME280;7947;48.834;9.132;2023-05-19T07:01:01;98668.66;;;14.89;60.56
15694;BME280;7947;48.834;9.132;2023-05-19T07:04:04;98671.66;;;14.88;60.87
15694;BME280;7947;48.834;9.132;2023-05-19T07:07:07;98667.09;;;14.83;61.15
15694;BME280;7947;48.834;9.132;2023-05-19T07:10:12;98667.28;;;14.92;62.14
15694;BME280;7947;48.834;9.132;2023-05-19T07:13:15;98671.81;;;14.96;61.74
15694;BME280;7947;48.834;9.132;2023-05-19T07:16:18;98660.81;;;15.11;61.97
15694;BME280;7947;48.834;9.132;2023-05-19T07:19:21;98662.84;;;15.19;61.25
15694;BME280;7947;48.834;9.132;2023-05-19T07:22:24;98656.06;;;15.22;61.72
15694;BME280;7947;48.834;9.132;2023-05-19T07:25:28;98656.72;;;15.14;59.74
15694;BME280;7947;48.834;9.132;2023-05-19T07:28:31;98661.00;;;14.96;60.14
15694;BME280;7947;48.834;9.132;2023-05-19T07:31:34;98661.16;;;14.86;60.44
15694;BME280;7947;48.834;9.132;2023-05-19T07:34:38;98657.34;;;14.87;59.74
15694;BME280;7947;48.834;9.132;2023-05-19T07:37:41;98660.13;;;14.82;60.21
15694;BME280;7947;48.834;9.132;2023-05-19T07:40:46;98661.09;;;14.68;59.51
15694;BME280;7947;48.834;9.132;2023-05-19T07:43:48;98658.91;;;14.46;60.18
15694;BME280;7947;48.834;9.132;2023-05-19T07:46:51;98661.38;;;14.42;61.78
15694;BME280;7947;48.834;9.132;2023-05-19T07:49:54;98650.28;;;14.44;60.56
15694;BME280;7947;48.834;9.132;2023-05-19T07:52:57;98651.16;;;14.39;60.00
15694;BME280;7947;48.834;9.132;2023-05-19T07:56:01;98648.63;;;14.48;60.85
15694;BME280;7947;48.834;9.132;2023-05-19T07:59:04;98643.81;;;14.45;60.69
15694;BME280;7947;48.834;9.132;2023-05-19T08:02:08;98641.78;;;14.56;61.87
15694;BME280;7947;48.834;9.132;2023-05-19T08:05:11;98651.09;;;14.68;61.08
15694;BME280;7947;48.834;9.132;2023-05-19T08:08:14;98646.41;;;14.79;61.22
15694;BME280;7947;48.834;9.132;2023-05-19T08:11:19;98639.75;;;14.90;61.91
15694;BME280;7947;48.834;9.132;2023-05-19T08:14:21;98641.81;;;14.98;60.20
15694;BME280;7947;48.834;9.132;2023-05-19T08:17:24;98631.88;;;14.93;59.94
15694;BME280;7947;48.834;9.132;2023-05-19T08:20:27;98631.88;;;14.93;58.96
15694;BME280;7947;48.834;9.132;2023-05-19T08:23:30;98631.50;;;14.81;58.71
15694;BME280;7947;48.834;9.132;2023-05-19T08:26:34;98634.59;;;14.70;60.13
15694;BME280;7947;48.834;9.132;2023-05-19T08:29:38;98631.28;;;14.54;60.37
15694;BME280;7947;48.834;9.132;2023-05-19T08:32:41;98631.88;;;14.51;59.96
15694;BME280;7947;48.834;9.132;2023-05-19T08:35:44;98627.72;;;14.59;59.84
15694;BME280;7947;48.834;9.132;2023-05-19T08:38:47;98619.94;;;14.57;60.45
15694;BME280;7947;48.834;9.132;2023-05-19T08:41:51;98620.38;;;14.64;59.92
15694;BME280;7947;48.834;9.132;2023-05-19T08:44:54;98628.75;;;14.63;60.52
15694;BME280;7947;48.834;9.132;2023-05-19T08:47:57;98621.69;;;14.67;60.19
15694;BME280;7947;48.834;9.132;2023-05-19T08:51:05;98615.28;;;14.63;60.12
15694;BME280;7947;48.834;9.132;2023-05-19T08:54:13;98624.75;;;14.60;61.48
15694;BME280;7947;48.834;9.132;2023-05-19T08:57:17;98620.38;;;14.64;60.81
15694;BME280;7947;48.834;9.132;2023-05-19T09:00:21;98616.22;;;14.72;60.66
15694;BME280;7947;48.834;9.132;2023-05-19T09:03:24;98622.22;;;14.69;61.45
15694;BME280;7947;48.834;9.132;2023-05-19T09:06:29;98618.28;;;14.80;60.14
15694;BME280;7947;48.834;9.132;2023-05-19T09:09:33;98617.59;;;14.69;59.91
15694;BME280;7947;48.834;9.132;2023-05-19T09:12:37;98623.16;;;14.78;61.40
15694;BME280;7947;48.834;9.132;2023-05-19T09:15:41;98610.78;;;14.77;60.64
15694;BME280;7947;48.834;9.132;2023-05-19T09:18:52;98618.94;;;14.72;60.12
15694;BME280;7947;48.834;9.132;2023-05-19T09:22:00;98614.56;;;14.76;61.00
15694;BME280;7947;48.834;9.132;2023-05-19T09:25:04;98619.41;;;14.79;60.96
15694;BME280;7947;48.834;9.132;2023-05-19T09:28:08;98618.47;;;14.88;59.82
15694;BME280;7947;48.834;9.132;2023-05-19T09:31:11;98619.19;;;14.94;60.00
15694;BME280;7947;48.834;9.132;2023-05-19T09:34:14;98614.31;;;14.96;60.77
15694;BME280;7947;48.834;9.132;2023-05-19T09:37:16;98625.38;;;14.94;60.75
15694;BME280;7947;48.834;9.132;2023-05-19T09:40:19;98628.31;;;14.98;61.05
15694;BME280;7947;48.834;9.132;2023-05-19T09:43:26;98615.59;;;14.98;60.28
15694;BME280;7947;48.834;9.132;2023-05-19T09:46:28;98621.25;;;15.02;60.43
15694;BME280;7947;48.834;9.132;2023-05-19T09:49:31;98616.88;;;15.06;59.52
15694;BME280;7947;48.834;9.132;2023-05-19T09:52:35;98615.16;;;15.10;59.68
15694;BME280;7947;48.834;9.132;2023-05-19T09:55:39;98611.91;;;15.13;59.85
15694;BME280;7947;48.834;9.132;2023-05-19T09:58:44;98609.41;;;15.16;58.96
15694;BME280;7947;48.834;9.132;2023-05-19T10:01:47;98602.53;;;15.24;58.43
15694;BME280;7947;48.834;9.132;2023-05-19T10:04:51;98608.38;;;15.12;59.05
15694;BME280;7947;48.834;9.132;2023-05-19T10:07:55;98603.66;;;15.23;59.60
15694;BME280;7947;48.834;9.132;2023-05-19T10:10:58;98599.19;;;15.32;58.70
15694;BME280;7947;48.834;9.132;2023-05-19T10:14:04;98601.38;;;15.30;58.51
15694;BME280;7947;48.834;9.132;2023-05-19T10:17:08;98594.88;;;15.31;58.71
15694;BME280;7947;48.834;9.132;2023-05-19T10:20:12;98593.25;;;15.30;59.79
15694;BME280;7947;48.834;9.132;2023-05-19T10:23:15;98601.22;;;15.40;60.49
15694;BME280;7947;48.834;9.132;2023-05-19T10:26:18;98591.38;;;15.49;59.81
15694;BME280;7947;48.834;9.132;2023-05-19T10:29:27;98592.19;;;15.50;57.85
15694;BME280;7947;48.834;9.132;2023-05-19T10:32:31;98588.38;;;15.51;59.80
15694;BME280;7947;48.834;9.132;2023-05-19T10:35:53;98591.06;;;15.51;58.79
15694;BME280;7947;48.834;9.132;2023-05-19T10:39:05;98596.97;;;15.53;58.62
15694;BME280;7947;48.834;9.132;2023-05-19T10:42:13;98600.59;;;15.48;57.58
15694;BME280;7947;48.834;9.132;2023-05-19T10:45:20;98589.78;;;15.48;58.58
15694;BME280;7947;48.834;9.132;2023-05-19T10:48:24;98585.44;;;15.47;59.67
15694;BME280;7947;48.834;9.132;2023-05-19T10:51:29;98580.19;;;15.56;60.62
15694;BME280;7947;48.834;9.132;2023-05-19T10:54:39;98591.13;;;15.64;58.19
15694;BME280;7947;48.834;9.132;2023-05-19T10:57:52;98584.78;;;15.55;59.04
15694;BME280;7947;48.834;9.132;2023-05-19T11:01:00;98587.19;;;15.57;59.31
15694;BME280;7947;48.834;9.132;2023-05-19T11:04:04;98580.69;;;15.58;59.56
15694;BME280;7947;48.834;9.132;2023-05-19T11:07:08;98584.13;;;15.63;58.98
15694;BME280;7947;48.834;9.132;2023-05-19T11:10:11;98578.72;;;15.63;59.69
15694;BME280;7947;48.834;9.132;2023-05-19T11:13:18;98582.44;;;15.67;59.56
15694;BME280;7947;48.834;9.132;2023-05-19T11:16:28;98585.63;;;15.69;58.82
15694;BME280;7947;48.834;9.132;2023-05-19T11:19:33;98587.03;;;15.67;59.94
15694;BME280;7947;48.834;9.132;2023-05-19T11:22:36;98588.66;;;15.68;59.71
15694;BME280;7947;48.834;9.132;2023-05-19T11:25:44;98583.00;;;15.64;59.81
15694;BME280;7947;48.834;9.132;2023-05-19T11:28:47;98578.03;;;15.71;59.62
15694;BME280;7947;48.834;9.132;2023-05-19T11:31:53;98586.66;;;15.73;59.56
15694;BME280;7947;48.834;9.132;2023-05-19T11:34:56;98584.00;;;15.68;57.67
15694;BME280;7947;48.834;9.132;2023-05-19T11:38:00;98580.44;;;15.73;59.71
15694;BME280;7947;48.834;9.132;2023-05-19T11:41:03;98577.94;;;15.76;58.29
15694;BME280;7947;48.834;9.132;2023-05-19T11:44:09;98573.63;;;15.75;58.76
15694;BME280;7947;48.834;9.132;2023-05-19T11:47:14;98580.84;;;15.80;59.46
15694;BME280;7947;48.834;9.132;2023-05-19T11:50:17;98575.16;;;15.81;59.06
15694;BME280;7947;48.834;9.132;2023-05-19T11:53:21;98580.56;;;15.81;58.03
15694;BME280;7947;48.834;9.132;2023-05-19T11:56:24;98569.81;;;15.76;58.51
15694;BME280;7947;48.834;9.132;2023-05-19T11:59:30;98563.84;;;15.79;58.48
15694;BME280;7947;48.834;9.132;2023-05-19T12:02:37;98566.13;;;15.86;58.39
15694;BME280;7947;48.834;9.132;2023-05-19T12:05:43;98565.22;;;15.77;57.18
15694;BME280;7947;48.834;9.132;2023-05-19T12:08:49;98565.53;;;15.75;57.42
15694;BME280;7947;48.834;9.132;2023-05-19T12:11:53;98556.97;;;15.68;58.25
15694;BME280;7947;48.834;9.132;2023-05-19T12:14:56;98557.69;;;15.74;59.31
15694;BME280;7947;48.834;9.132;2023-05-19T12:18:01;98571.19;;;15.74;57.59
15694;BME280;7947;48.834;9.132;2023-05-19T12:21:04;98565.72;;;15.79;58.54
15694;BME280;7947;48.834;9.132;2023-05-19T12:24:08;98557.44;;;15.89;58.98
15694;BME280;7947;48.834;9.132;2023-05-19T12:27:17;98564.75;;;16.02;59.84
15694;BME280;7947;48.834;9.132;2023-05-19T12:30:25;98570.00;;;16.12;59.84
15694;BME280;7947;48.834;9.132;2023-05-19T12:33:31;98572.00;;;16.20;58.47
15694;BME280;7947;48.834;9.132;2023-05-19T12:36:36;98569.38;;;16.15;55.87
15694;BME280;7947;48.834;9.132;2023-05-19T12:39:41;98572.00;;;16.06;56.43
15694;BME280;7947;48.834;9.132;2023-05-19T12:42:44;98574.06;;;15.96;56.45
15694;BME280;7947;48.834;9.132;2023-05-19T12:45:48;98564.81;;;15.83;57.83
15694;BME280;7947;48.834;9.132;2023-05-19T12:48:57;98573.22;;;15.82;57.30
15694;BME280;7947;48.834;9.132;2023-05-19T12:52:01;98569.09;;;15.71;57.21
15694;BME280;7947;48.834;9.132;2023-05-19T12:55:11;98560.88;;;15.62;58.40
15694;BME280;7947;48.834;9.132;2023-05-19T12:58:15;98563.88;;;15.61;58.72
15694;BME280;7947;48.834;9.132;2023-05-19T13:01:17;98566.56;;;15.61;58.89
15694;BME280;7947;48.834;9.132;2023-05-19T13:04:22;98570.56;;;15.50;58.13
15694;BME280;7947;48.834;9.132;2023-05-19T13:07:25;98564.72;;;15.43;58.22
15694;BME280;7947;48.834;9.132;2023-05-19T13:10:28;98567.78;;;15.36;58.87
15694;BME280;7947;48.834;9.132;2023-05-19T13:13:32;98568.28;;;15.38;61.05
15694;BME280;7947;48.834;9.132;2023-05-19T13:16:35;98566.97;;;15.35;59.15
15694;BME280;7947;48.834;9.132;2023-05-19T13:19:39;98557.47;;;15.38;59.76
15694;BME280;7947;48.834;9.132;2023-05-19T13:22:42;98558.72;;;15.46;61.16
15694;BME280;7947;48.834;9.132;2023-05-19T13:25:45;98560.81;;;15.49;60.06
15694;BME280;7947;48.834;9.132;2023-05-19T13:28:48;98550.66;;;15.59;59.56
15694;BME280;7947;48.834;9.132;2023-05-19T13:31:50;98546.47;;;15.67;59.42
15694;BME280;7947;48.834;9.132;2023-05-19T13:34:54;98540.00;;;15.81;58.94
15694;BME280;7947;48.834;9.132;2023-05-19T13:37:57;98534.59;;;15.95;57.46
15694;BME280;7947;48.834;9.132;2023-05-19T13:41:00;98543.94;;;16.02;56.41
15694;BME280;7947;48.834;9.132;2023-05-19T13:44:03;98539.22;;;15.94;56.16
15694;BME280;7947;48.834;9.132;2023-05-19T13:47:06;98532.19;;;15.93;57.44
15694;BME280;7947;48.834;9.132;2023-05-19T13:50:10;98538.78;;;15.87;57.19
15694;BME280;7947;48.834;9.132;2023-05-19T13:53:13;98539.06;;;15.72;58.32
15694;BME280;7947;48.834;9.132;2023-05-19T13:56:16;98542.75;;;15.63;59.17
15694;BME280;7947;48.834;9.132;2023-05-19T13:59:19;98542.25;;;15.61;61.13
15694;BME280;7947;48.834;9.132;2023-05-19T14:02:22;98540.16;;;15.58;61.67
15694;BME280;7947;48.834;9.132;2023-05-19T14:05:26;98532.91;;;15.53;60.41
15694;BME280;7947;48.834;9.132;2023-05-19T14:08:29;98531.53;;;15.56;59.28
15694;BME280;7947;48.834;9.132;2023-05-19T14:11:32;98533.53;;;15.50;59.62
15694;BME280;7947;48.834;9.132;2023-05-19T14:14:35;98524.41;;;15.46;60.61
15694;BME280;7947;48.834;9.132;2023-05-19T14:17:38;98529.50;;;15.48;59.90
15694;BME280;7947;48.834;9.132;2023-05-19T14:20:42;98519.91;;;15.55;60.76
15694;BME280;7947;48.834;9.132;2023-05-19T14:23:45;98514.03;;;15.67;60.79
15694;BME280;7947;48.834;9.132;2023-05-19T14:26:48;98518.13;;;15.78;59.98
15694;BME280;7947;48.834;9.132;2023-05-19T14:29:51;98518.25;;;15.86;60.01
15694;BME280;7947;48.834;9.132;2023-05-19T14:32:54;98514.88;;;15.94;59.57
15694;BME280;7947;48.834;9.132;2023-05-19T14:35:59;98507.84;;;16.07;59.01
15694;BME280;7947;48.834;9.132;2023-05-19T14:39:02;98517.88;;;16.06;58.95
15694;BME280;7947;48.834;9.132;2023-05-19T14:42:05;98512.56;;;16.01;58.41
15694;BME280;7947;48.834;9.132;2023-05-19T14:45:09;98519.28;;;16.04;59.42
15694;BME280;7947;48.834;9.132;2023-05-19T14:48:12;98515.25;;;16.01;59.76
15694;BME280;7947;48.834;9.132;2023-05-19T14:51:16;98517.16;;;16.01;58.25
15694;BME280;7947;48.834;9.132;2023-05-19T14:54:19;98514.75;;;15.99;59.16
15694;BME280;7947;48.834;9.132;2023-05-19T14:57:22;98518.78;;;16.02;59.20
15694;BME280;7947;48.834;9.132;2023-05-19T15:00:24;98520.59;;;16.06;58.22
15694;BME280;7947;48.834;9.132;2023-05-19T15:03:27;98522.47;;;15.92;57.88
15694;BME280;7947;48.834;9.132;2023-05-19T15:06:31;98520.28;;;15.94;58.70
15694;BME280;7947;48.834;9.132;2023-05-19T15:09:34;98523.38;;;16.01;57.64
15694;BME280;7947;48.834;9.132;2023-05-19T15:12:37;98514.75;;;15.99;57.99
15694;BME280;7947;48.834;9.132;2023-05-19T15:15:40;98507.25;;;15.96;58.83
15694;BME280;7947;48.834;9.132;2023-05-19T15:18:43;98509.44;;;15.94;59.26
15694;BME280;7947;48.834;9.132;2023-05-19T15:21:47;98502.94;;;15.95;59.15
15694;BME280;7947;48.834;9.132;2023-05-19T15:24:51;98505.75;;;15.90;58.33
15694;BME280;7947;48.834;9.132;2023-05-19T15:27:54;98498.31;;;15.82;58.51
15694;BME280;7947;48.834;9.132;2023-05-19T15:30:56;98505.63;;;15.82;58.78
15694;BME280;7947;48.834;9.132;2023-05-19T15:33:59;98494.03;;;15.81;59.99
15694;BME280;7947;48.834;9.132;2023-05-19T15:37:04;98487.31;;;15.92;58.25
15694;BME280;7947;48.834;9.132;2023-05-19T15:40:08;98499.91;;;15.97;60.44
15694;BME280;7947;48.834;9.132;2023-05-19T15:43:11;98494.41;;;16.02;59.08
15694;BME280;7947;48.834;9.132;2023-05-19T15:46:14;98499.13;;;16.10;58.98
15694;BME280;7947;48.834;9.132;2023-05-19T15:49:19;98485.09;;;16.08;58.88
15694;BME280;7947;48.834;9.132;2023-05-19T15:52:23;98480.38;;;16.13;59.49
15694;BME280;7947;48.834;9.132;2023-05-19T15:55:26;98474.97;;;16.13;59.11
15694;BME280;7947;48.834;9.132;2023-05-19T15:58:29;98481.47;;;16.12;58.81
15694;BME280;7947;48.834;9.132;2023-05-19T16:01:32;98477.69;;;16.13;59.41
15694;BME280;7947;48.834;9.132;2023-05-19T16:04:35;98476.56;;;16.14;59.98
15694;BME280;7947;48.834;9.132;2023-05-19T16:07:39;98469.25;;;16.15;59.96
15694;BME280;7947;48.834;9.132;2023-05-19T16:10:43;98461.06;;;16.20;58.84
15694;BME280;7947;48.834;9.132;2023-05-19T16:13:45;98459.44;;;16.19;57.99
15694;BME280;7947;48.834;9.132;2023-05-19T16:16:48;98453.41;;;16.22;58.98
15694;BME280;7947;48.834;9.132;2023-05-19T16:19:52;98446.72;;;16.19;58.69
15694;BME280;7947;48.834;9.132;2023-05-19T16:22:56;98449.91;;;16.21;58.39
15694;BME280;7947;48.834;9.132;2023-05-19T16:25:59;98443.28;;;16.27;58.55
15694;BME280;7947;48.834;9.132;2023-05-19T16:29:02;98443.56;;;16.26;58.29